createdAt,value
2023-02-24T00:00:58.776Z,0.00
2023-02-24T00:01:55.583Z,0.00
2023-02-24T00:02:54.586Z,0.00
2023-02-24T00:03:54.593Z,0.00
2023-02-24T00:04:54.575Z,0.00
2023-02-24T00:05:56.391Z,0.00
2023-02-24T00:06:54.556Z,0.00
2023-02-24T00:07:54.515Z,0.00
2023-02-24T00:08:54.557Z,0.00
2023-02-24T00:09:54.521Z,0.00
2023-02-24T00:10:54.560Z,0.00
2023-02-24T00:11:57.222Z,0.00
2023-02-24T00:12:54.475Z,0.00
2023-02-24T00:13:54.458Z,0.00
2023-02-24T00:14:54.484Z,0.00
2023-02-24T00:15:54.851Z,0.00
2023-02-24T00:16:54.479Z,0.00
2023-02-24T00:17:54.391Z,0.00
2023-02-24T00:18:54.423Z,0.00
2023-02-24T00:19:55.342Z,0.00
2023-02-24T00:20:54.404Z,0.00
2023-02-24T00:21:54.462Z,0.00
2023-02-24T00:22:54.340Z,0.00
2023-02-24T00:23:54.377Z,0.00
2023-02-24T00:24:54.344Z,0.00
2023-02-24T00:25:54.351Z,0.00
2023-02-24T00:26:54.324Z,0.00
2023-02-24T00:27:54.292Z,0.00
2023-02-24T00:28:54.292Z,0.00
2023-02-24T00:29:54.284Z,0.00
2023-02-24T00:30:54.392Z,0.00
2023-02-24T00:31:56.310Z,0.00
2023-02-24T00:32:54.318Z,0.00
2023-02-24T00:33:54.253Z,0.00
2023-02-24T00:34:54.258Z,0.00
2023-02-24T00:35:54.198Z,0.00
2023-02-24T00:36:54.199Z,0.00
2023-02-24T00:37:54.208Z,0.00
2023-02-24T00:38:54.212Z,0.00
2023-02-24T00:39:54.176Z,0.00
2023-02-24T00:40:54.471Z,0.00
2023-02-24T00:41:54.173Z,0.00
2023-02-24T00:42:54.142Z,0.00
2023-02-24T00:43:54.122Z,0.00
2023-02-24T00:44:54.191Z,0.00
2023-02-24T00:45:54.111Z,0.00
2023-02-24T00:46:54.073Z,0.00
2023-02-24T00:47:54.076Z,0.00
2023-02-24T00:48:54.073Z,0.00
2023-02-24T00:50:01.401Z,0.00
2023-02-24T00:51:02.454Z,0.00
2023-02-24T00:51:54.694Z,0.00
2023-02-24T00:52:54.013Z,0.00
2023-02-24T00:53:54.001Z,0.00
2023-02-24T00:55:01.026Z,0.00
2023-02-24T00:56:01.015Z,0.00
2023-02-24T00:57:03.843Z,0.00
2023-02-24T00:58:00.997Z,0.00
2023-02-24T00:59:02.928Z,0.00
2023-02-24T01:00:03.320Z,0.00
2023-02-24T01:01:01.791Z,0.00
2023-02-24T01:02:01.953Z,0.00
2023-02-24T01:02:53.938Z,0.00
2023-02-24T01:03:53.924Z,0.00
2023-02-24T01:04:53.918Z,0.00
2023-02-24T01:05:53.907Z,0.00
2023-02-24T01:06:53.860Z,0.00
2023-02-24T01:07:53.858Z,0.00
2023-02-24T01:08:53.836Z,0.00
2023-02-24T01:09:53.844Z,0.00
2023-02-24T01:10:57.688Z,0.00
2023-02-24T01:11:54.223Z,0.00
2023-02-24T01:12:53.834Z,0.00
2023-02-24T01:13:53.805Z,0.00
2023-02-24T01:14:53.819Z,0.00
2023-02-24T01:15:54.631Z,0.00
2023-02-24T01:16:53.738Z,0.00
2023-02-24T01:17:53.729Z,0.00
2023-02-24T01:18:53.734Z,0.00
2023-02-24T01:19:53.757Z,0.00
2023-02-24T01:20:53.731Z,0.00
2023-02-24T01:21:53.720Z,0.00
2023-02-24T01:22:55.363Z,0.00
2023-02-24T01:23:56.394Z,0.00
2023-02-24T01:24:53.678Z,0.00
2023-02-24T01:25:53.640Z,0.00
2023-02-24T01:26:53.636Z,0.00
2023-02-24T01:27:53.639Z,0.00
2023-02-24T01:28:53.651Z,0.00
2023-02-24T01:29:53.611Z,0.00
2023-02-24T01:30:53.639Z,0.00
2023-02-24T01:31:53.903Z,0.00
2023-02-24T01:32:53.828Z,0.00
2023-02-24T01:33:53.550Z,0.00
2023-02-24T01:34:53.586Z,0.00
2023-02-24T01:35:53.527Z,0.00
2023-02-24T01:36:53.526Z,0.00
2023-02-24T01:37:53.559Z,0.00
2023-02-24T01:38:53.539Z,0.00
2023-02-24T01:39:53.521Z,0.00
2023-02-24T01:40:53.483Z,0.00
2023-02-24T01:41:53.512Z,0.00
2023-02-24T01:42:53.455Z,0.00
2023-02-24T01:43:53.453Z,0.00
2023-02-24T01:44:53.452Z,0.00
2023-02-24T01:45:53.435Z,0.00
2023-02-24T01:46:53.572Z,0.00
2023-02-24T01:47:53.444Z,0.00
2023-02-24T01:48:53.409Z,0.00
2023-02-24T01:49:53.397Z,0.00
2023-02-24T01:50:53.385Z,0.00
2023-02-24T01:51:53.413Z,0.00
2023-02-24T01:52:53.384Z,0.00
2023-02-24T01:53:53.326Z,0.00
2023-02-24T01:54:53.327Z,0.00
2023-02-24T01:55:53.296Z,0.00
2023-02-24T01:56:53.313Z,0.00
2023-02-24T01:57:53.278Z,0.00
2023-02-24T01:58:53.271Z,0.00
2023-02-24T01:59:53.277Z,0.00
2023-02-24T02:00:53.267Z,0.00
2023-02-24T02:01:53.365Z,0.00
2023-02-24T02:02:53.335Z,0.00
2023-02-24T02:03:53.229Z,0.00
2023-02-24T02:04:53.257Z,0.00
2023-02-24T02:05:53.206Z,0.00
2023-02-24T02:06:53.487Z,0.00
2023-02-24T02:07:53.178Z,0.00
2023-02-24T02:08:53.171Z,0.00
2023-02-24T02:09:53.159Z,0.00
2023-02-24T02:10:53.169Z,0.00
2023-02-24T02:11:53.138Z,0.00
2023-02-24T02:12:53.128Z,0.00
2023-02-24T02:13:53.221Z,0.00
2023-02-24T02:14:53.118Z,0.00
2023-02-24T02:15:53.133Z,0.00
2023-02-24T02:16:53.094Z,0.00
2023-02-24T02:17:53.065Z,0.00
2023-02-24T02:18:53.389Z,0.00
2023-02-24T02:19:56.957Z,0.00
2023-02-24T02:20:53.018Z,0.00
2023-02-24T02:21:53.026Z,0.00
2023-02-24T02:22:53.013Z,0.00
2023-02-24T02:23:53.032Z,0.00
2023-02-24T02:24:53.406Z,0.00
2023-02-24T02:26:00.374Z,0.00
2023-02-24T02:27:01.825Z,0.00
2023-02-24T02:28:01.280Z,0.00
2023-02-24T02:29:00.309Z,0.00
2023-02-24T02:29:59.949Z,0.00
2023-02-24T02:31:01.377Z,0.00
2023-02-24T02:31:53.033Z,0.00
2023-02-24T02:32:53.075Z,0.00
2023-02-24T02:33:52.899Z,0.00
2023-02-24T02:34:52.910Z,0.00
2023-02-24T02:35:52.845Z,0.00
2023-02-24T02:36:52.841Z,0.00
2023-02-24T02:37:52.827Z,0.00
2023-02-24T02:38:52.815Z,0.00
2023-02-24T02:39:52.824Z,0.00
2023-02-24T02:40:52.829Z,0.00
2023-02-24T02:41:52.792Z,0.00
2023-02-24T02:42:52.769Z,0.00
2023-02-24T02:43:52.791Z,0.00
2023-02-24T02:44:52.745Z,0.00
2023-02-24T02:45:52.790Z,0.00
2023-02-24T02:46:52.722Z,0.00
2023-02-24T02:47:52.714Z,0.00
2023-02-24T02:48:52.719Z,0.00
2023-02-24T02:49:52.739Z,0.00
2023-02-24T02:50:52.690Z,0.00
2023-02-24T02:51:52.696Z,0.00
2023-02-24T02:52:53.402Z,0.00
2023-02-24T02:53:52.652Z,0.00
2023-02-24T02:54:52.641Z,0.00
2023-02-24T02:55:52.624Z,0.00
2023-02-24T02:56:52.605Z,0.00
2023-02-24T02:57:52.601Z,0.00
2023-02-24T02:58:52.594Z,0.00
2023-02-24T02:59:52.584Z,0.00
2023-02-24T03:00:52.595Z,0.00
2023-02-24T03:01:52.543Z,0.00
2023-02-24T03:02:52.532Z,0.00
2023-02-24T03:03:52.525Z,0.00
2023-02-24T03:04:52.616Z,0.00
2023-02-24T03:05:52.493Z,0.00
2023-02-24T03:06:52.497Z,0.00
2023-02-24T03:07:52.488Z,0.00
2023-02-24T03:08:52.488Z,0.00
2023-02-24T03:09:52.464Z,0.00
2023-02-24T03:10:53.323Z,0.00
2023-02-24T03:11:52.468Z,0.00
2023-02-24T03:12:52.433Z,0.00
2023-02-24T03:13:52.429Z,0.00
2023-02-24T03:14:52.408Z,0.00
2023-02-24T03:15:52.409Z,0.00
2023-02-24T03:16:52.449Z,0.00
2023-02-24T03:17:53.823Z,0.00
2023-02-24T03:18:52.355Z,0.00
2023-02-24T03:19:52.397Z,0.00
2023-02-24T03:20:52.342Z,0.00
2023-02-24T03:21:52.326Z,0.00
2023-02-24T03:22:52.306Z,0.00
2023-02-24T03:23:52.299Z,0.00
2023-02-24T03:24:52.267Z,0.00
2023-02-24T03:25:52.278Z,0.00
2023-02-24T03:26:52.268Z,0.00
2023-02-24T03:27:52.268Z,0.00
2023-02-24T03:28:52.246Z,0.00
2023-02-24T03:29:52.246Z,0.00
2023-02-24T03:30:52.256Z,0.00
2023-02-24T03:31:52.271Z,0.00
2023-02-24T03:32:52.252Z,0.00
2023-02-24T03:33:52.200Z,0.00
2023-02-24T03:34:52.198Z,0.00
2023-02-24T03:35:52.184Z,0.00
2023-02-24T03:36:52.157Z,0.00
2023-02-24T03:37:52.120Z,0.00
2023-02-24T03:38:52.127Z,0.00
2023-02-24T03:39:52.122Z,0.00
2023-02-24T03:40:53.007Z,0.00
2023-02-24T03:41:52.108Z,0.00
2023-02-24T03:42:52.087Z,0.00
2023-02-24T03:43:52.063Z,0.00
2023-02-24T03:44:52.054Z,0.00
2023-02-24T03:45:52.064Z,0.00
2023-02-24T03:46:52.069Z,0.00
2023-02-24T03:47:52.025Z,0.00
2023-02-24T03:48:52.020Z,0.00
2023-02-24T03:49:52.019Z,0.00
2023-02-24T03:50:51.989Z,0.00
2023-02-24T03:51:51.981Z,0.00
2023-02-24T03:52:51.980Z,0.00
2023-02-24T03:53:51.939Z,0.00
2023-02-24T03:54:51.972Z,0.00
2023-02-24T03:55:51.921Z,0.00
2023-02-24T03:56:51.938Z,0.00
2023-02-24T03:57:51.917Z,0.00
2023-02-24T03:58:52.014Z,0.00
2023-02-24T03:59:51.902Z,0.00
2023-02-24T04:00:51.859Z,0.00
2023-02-24T04:01:51.938Z,0.00
2023-02-24T04:02:51.841Z,0.00
2023-02-24T04:03:51.828Z,0.00
2023-02-24T04:04:59.934Z,0.00
2023-02-24T04:05:59.134Z,0.00
2023-02-24T04:06:51.785Z,0.00
2023-02-24T04:08:00.104Z,0.00
2023-02-24T04:08:51.760Z,0.00
2023-02-24T04:10:01.322Z,0.00
2023-02-24T04:10:51.737Z,0.00
2023-02-24T04:11:51.753Z,0.00
2023-02-24T04:12:51.802Z,0.00
2023-02-24T04:13:51.718Z,0.00
2023-02-24T04:14:51.716Z,0.00
2023-02-24T04:15:51.770Z,0.00
2023-02-24T04:16:51.712Z,0.00
2023-02-24T04:17:51.694Z,0.00
2023-02-24T04:18:51.660Z,0.00
2023-02-24T04:19:51.666Z,0.00
2023-02-24T04:20:51.655Z,0.00
2023-02-24T04:21:51.673Z,0.00
2023-02-24T04:22:51.627Z,0.00
2023-02-24T04:23:51.607Z,0.00
2023-02-24T04:24:52.339Z,0.00
2023-02-24T04:25:51.627Z,0.00
2023-02-24T04:26:51.631Z,0.00
2023-02-24T04:27:58.949Z,0.00
2023-02-24T04:28:58.928Z,0.00
2023-02-24T04:29:59.209Z,0.00
2023-02-24T04:31:01.902Z,0.00
2023-02-24T04:31:51.744Z,0.00
2023-02-24T04:32:51.584Z,0.00
2023-02-24T04:33:51.501Z,0.00
2023-02-24T04:34:51.489Z,0.00
2023-02-24T04:35:51.492Z,0.00
2023-02-24T04:36:51.452Z,0.00
2023-02-24T04:37:52.592Z,0.00
2023-02-24T04:38:54.127Z,0.00
2023-02-24T04:39:52.461Z,0.00
2023-02-24T04:40:51.454Z,0.00
2023-02-24T04:41:51.412Z,0.00
2023-02-24T04:42:51.421Z,0.00
2023-02-24T04:43:51.423Z,0.00
2023-02-24T04:44:51.383Z,0.00
2023-02-24T04:45:51.376Z,0.00
2023-02-24T04:46:51.345Z,0.00
2023-02-24T04:47:51.412Z,0.00
2023-02-24T04:48:51.323Z,0.00
2023-02-24T04:49:51.345Z,0.00
2023-02-24T04:50:51.323Z,0.00
2023-02-24T04:51:51.280Z,0.00
2023-02-24T04:52:51.303Z,0.00
2023-02-24T04:53:51.285Z,0.00
2023-02-24T04:54:51.315Z,0.00
2023-02-24T04:55:58.631Z,0.00
2023-02-24T04:56:59.624Z,0.00
2023-02-24T04:58:01.105Z,0.00
2023-02-24T04:58:59.054Z,0.00
2023-02-24T04:59:59.137Z,0.00
2023-02-24T05:00:59.507Z,0.00
2023-02-24T05:01:58.526Z,0.00
2023-02-24T05:02:51.175Z,0.00
2023-02-24T05:03:51.179Z,0.00
2023-02-24T05:04:51.251Z,0.00
2023-02-24T05:05:51.138Z,0.00
2023-02-24T05:06:51.122Z,0.00
2023-02-24T05:07:51.139Z,0.00
2023-02-24T05:08:51.108Z,0.00
2023-02-24T05:09:51.136Z,0.00
2023-02-24T05:10:51.107Z,0.00
2023-02-24T05:11:51.094Z,0.00
2023-02-24T05:12:51.076Z,0.00
2023-02-24T05:13:51.036Z,0.00
2023-02-24T05:14:51.067Z,0.00
2023-02-24T05:15:51.032Z,0.00
2023-02-24T05:16:51.035Z,0.00
2023-02-24T05:17:51.030Z,0.00
2023-02-24T05:18:51.001Z,0.00
2023-02-24T05:19:51.024Z,0.00
2023-02-24T05:20:50.972Z,0.00
2023-02-24T05:21:50.961Z,0.00
2023-02-24T05:22:50.949Z,0.00
2023-02-24T05:23:50.944Z,0.00
2023-02-24T05:24:50.942Z,0.00
2023-02-24T05:25:50.933Z,0.00
2023-02-24T05:26:50.920Z,0.00
2023-02-24T05:27:50.894Z,0.00
2023-02-24T05:28:50.897Z,0.00
2023-02-24T05:29:50.871Z,0.00
2023-02-24T05:30:50.959Z,0.00
2023-02-24T05:31:51.058Z,0.00
2023-02-24T05:32:50.883Z,0.00
2023-02-24T05:33:50.823Z,0.00
2023-02-24T05:34:50.847Z,0.00
2023-02-24T05:35:50.815Z,0.00
2023-02-24T05:36:50.816Z,0.00
2023-02-24T05:37:50.797Z,0.00
2023-02-24T05:38:50.799Z,0.00
2023-02-24T05:39:54.653Z,0.00
2023-02-24T05:40:50.756Z,0.00
2023-02-24T05:41:59.064Z,0.00
2023-02-24T05:42:59.067Z,0.00
2023-02-24T05:43:50.698Z,0.00
2023-02-24T05:44:58.073Z,0.00
2023-02-24T05:45:59.052Z,0.00
2023-02-24T05:46:58.077Z,0.00
2023-02-24T05:47:50.672Z,0.00
2023-02-24T05:48:50.693Z,0.00
2023-02-24T05:49:50.652Z,0.00
2023-02-24T05:50:50.643Z,0.00
2023-02-24T05:51:50.868Z,0.00
2023-02-24T05:52:50.637Z,0.00
2023-02-24T05:53:50.615Z,0.00
2023-02-24T05:54:50.603Z,0.00
2023-02-24T05:55:50.570Z,0.00
2023-02-24T05:56:50.572Z,0.00
2023-02-24T05:57:50.552Z,0.00
2023-02-24T05:58:53.493Z,0.00
2023-02-24T05:59:50.552Z,0.00
2023-02-24T06:00:50.568Z,0.00
2023-02-24T06:01:50.533Z,0.00
2023-02-24T06:02:53.344Z,0.00
2023-02-24T06:03:50.514Z,4.00
2023-02-24T06:04:50.503Z,0.00
2023-02-24T06:05:50.531Z,0.00
2023-02-24T06:06:52.468Z,4.00
2023-02-24T06:07:50.449Z,4.00
2023-02-24T06:08:50.453Z,4.00
2023-02-24T06:09:50.559Z,4.00
2023-02-24T06:10:50.505Z,4.00
2023-02-24T06:11:50.531Z,4.00
2023-02-24T06:12:53.598Z,8.00
2023-02-24T06:13:54.206Z,8.00
2023-02-24T06:14:50.394Z,8.00
2023-02-24T06:15:50.527Z,8.00
2023-02-24T06:16:50.381Z,8.00
2023-02-24T06:17:50.378Z,12.00
2023-02-24T06:18:50.347Z,12.00
2023-02-24T06:19:50.349Z,20.00
2023-02-24T06:20:50.306Z,24.00
2023-02-24T06:21:50.302Z,28.00
2023-02-24T06:22:50.606Z,36.00
2023-02-24T06:23:50.316Z,40.00
2023-02-24T06:24:53.477Z,44.00
2023-02-24T06:25:50.248Z,52.00
2023-02-24T06:26:51.426Z,56.00
2023-02-24T06:29:00.313Z,72.00
2023-02-24T06:30:00.265Z,80.00
2023-02-24T06:31:00.283Z,88.00
2023-02-24T06:32:00.354Z,104.00
2023-02-24T06:33:00.291Z,112.00
2023-02-24T06:34:00.211Z,132.00
2023-02-24T06:35:00.248Z,144.00
2023-02-24T06:36:00.222Z,148.00
2023-02-24T06:37:00.193Z,156.00
2023-02-24T06:38:00.474Z,168.00
2023-02-24T06:39:00.173Z,180.00
2023-02-24T06:40:00.191Z,192.00
2023-02-24T06:41:00.135Z,204.00
2023-02-24T06:42:00.138Z,224.00
2023-02-24T06:43:00.126Z,252.00
2023-02-24T06:44:00.118Z,280.00
2023-02-24T06:45:00.134Z,308.00
2023-02-24T06:46:00.150Z,328.00
2023-02-24T06:47:00.125Z,340.00
2023-02-24T06:48:00.091Z,352.00
2023-02-24T06:49:00.068Z,368.00
2023-02-24T06:50:00.067Z,384.00
2023-02-24T06:51:00.029Z,400.00
2023-02-24T06:52:00.013Z,420.00
2023-02-24T06:53:00.020Z,448.00
2023-02-24T06:53:59.995Z,480.00
2023-02-24T06:55:00.005Z,524.00
2023-02-24T06:55:59.970Z,584.00
2023-02-24T06:56:59.969Z,640.00
2023-02-24T06:57:59.956Z,692.00
2023-02-24T06:58:59.946Z,736.00
2023-02-24T06:59:59.950Z,796.00
2023-02-24T07:00:59.967Z,860.00
2023-02-24T07:01:59.921Z,896.00
2023-02-24T07:02:59.897Z,928.00
2023-02-24T07:03:59.888Z,944.00
2023-02-24T07:04:59.905Z,976.00
2023-02-24T07:05:59.866Z,1032.00
2023-02-24T07:06:59.859Z,1080.00
2023-02-24T07:07:59.830Z,1128.00
2023-02-24T07:08:59.836Z,1176.00
2023-02-24T07:10:00.594Z,1244.00
2023-02-24T07:10:59.822Z,1336.00
2023-02-24T07:11:59.787Z,1432.00
2023-02-24T07:12:59.786Z,1488.00
2023-02-24T07:13:59.778Z,1468.00
2023-02-24T07:14:59.786Z,1412.00
2023-02-24T07:15:59.746Z,1348.00
2023-02-24T07:16:59.891Z,1356.00
2023-02-24T07:17:59.716Z,1448.00
2023-02-24T07:18:59.722Z,1560.00
2023-02-24T07:19:59.706Z,1624.00
2023-02-24T07:20:59.687Z,1684.00
2023-02-24T07:21:59.671Z,1748.00
2023-02-24T07:22:59.660Z,1824.00
2023-02-24T07:23:59.828Z,1900.00
2023-02-24T07:24:59.657Z,1996.00
2023-02-24T07:25:59.639Z,2076.00
2023-02-24T07:26:59.654Z,2124.00
2023-02-24T07:27:59.637Z,2156.00
2023-02-24T07:28:59.638Z,2200.00
2023-02-24T07:29:59.618Z,2216.00
2023-02-24T07:30:59.697Z,2248.00
2023-02-24T07:31:59.721Z,2372.00
2023-02-24T07:32:59.548Z,2536.00
2023-02-24T07:33:59.557Z,2600.00
2023-02-24T07:34:59.634Z,2632.00
2023-02-24T07:35:59.562Z,2548.00
2023-02-24T07:36:59.503Z,2344.00
2023-02-24T07:37:59.487Z,2296.00
2023-02-24T07:38:59.491Z,2336.00
2023-02-24T07:39:59.496Z,2344.00
2023-02-24T07:40:59.507Z,2352.00
2023-02-24T07:41:59.433Z,2364.00
2023-02-24T07:42:59.435Z,2364.00
2023-02-24T07:43:59.436Z,2312.00
2023-02-24T07:44:59.467Z,2248.00
2023-02-24T07:45:59.446Z,2204.00
2023-02-24T07:46:59.515Z,2192.00
2023-02-24T07:48:04.874Z,2168.00
2023-02-24T07:49:00.053Z,2124.00
2023-02-24T07:49:59.694Z,2144.00
2023-02-24T07:50:59.380Z,2224.00
2023-02-24T07:51:59.363Z,2300.00
2023-02-24T07:52:59.319Z,2396.00
2023-02-24T07:54:03.484Z,2484.00
2023-02-24T07:55:00.631Z,2560.00
2023-02-24T07:56:10.162Z,2672.00
2023-02-24T07:56:59.730Z,2720.00
2023-02-24T07:57:59.302Z,2756.00
2023-02-24T07:58:59.267Z,2760.00
2023-02-24T07:59:59.307Z,2772.00
2023-02-24T08:00:59.237Z,2796.00
2023-02-24T08:02:02.064Z,2744.00
2023-02-24T08:02:59.210Z,2684.00
2023-02-24T08:03:59.213Z,2588.00
2023-02-24T08:04:59.208Z,2456.00
2023-02-24T08:05:59.212Z,2464.00
2023-02-24T08:06:59.172Z,2496.00
2023-02-24T08:07:59.145Z,2512.00
2023-02-24T08:08:59.152Z,2492.00
2023-02-24T08:09:59.122Z,2552.00
2023-02-24T08:10:59.125Z,2672.00
2023-02-24T08:11:59.146Z,2704.00
2023-02-24T08:12:59.075Z,2668.00
2023-02-24T08:13:59.074Z,2672.00
2023-02-24T08:14:59.081Z,2744.00
2023-02-24T08:15:59.372Z,2824.00
2023-02-24T08:16:59.421Z,2836.00
2023-02-24T08:17:59.028Z,2916.00
2023-02-24T08:18:59.333Z,3056.00
2023-02-24T08:19:59.005Z,3176.00
2023-02-24T08:20:58.996Z,3216.00
2023-02-24T08:21:58.977Z,3268.00
2023-02-24T08:22:59.275Z,3456.00
2023-02-24T08:23:59.205Z,3716.00
2023-02-24T08:24:58.935Z,3884.00
2023-02-24T08:25:58.993Z,3908.00
2023-02-24T08:26:58.909Z,3796.00
2023-02-24T08:28:07.491Z,3592.00
2023-02-24T08:28:59.892Z,3548.00
2023-02-24T08:29:58.921Z,3548.00
2023-02-24T08:30:58.979Z,3608.00
2023-02-24T08:31:58.933Z,3708.00
2023-02-24T08:32:58.907Z,3828.00
2023-02-24T08:34:01.625Z,3924.00
2023-02-24T08:34:58.834Z,3996.00
2023-02-24T08:35:58.830Z,4056.00
2023-02-24T08:36:58.797Z,4036.00
2023-02-24T08:37:58.794Z,3924.00
2023-02-24T08:39:01.720Z,3900.00
2023-02-24T08:39:59.627Z,3944.00
2023-02-24T08:41:01.650Z,4016.00
2023-02-24T08:42:00.542Z,4040.00
2023-02-24T08:43:01.092Z,3884.00
2023-02-24T08:43:58.740Z,3716.00
2023-02-24T08:44:58.725Z,3620.00
2023-02-24T08:45:58.770Z,3552.00
2023-02-24T08:46:58.726Z,3432.00
2023-02-24T08:48:01.513Z,3356.00
2023-02-24T08:48:58.651Z,3384.00
2023-02-24T08:49:58.696Z,3432.00
2023-02-24T08:50:58.714Z,3548.00
2023-02-24T08:51:58.666Z,3620.00
2023-02-24T08:52:59.920Z,3624.00
2023-02-24T09:13:53.299Z,3760.00
2023-02-24T09:14:52.821Z,3748.00
2023-02-24T09:15:54.318Z,3756.00
2023-02-24T09:16:56.233Z,3800.00
2023-02-24T09:20:24.612Z,3764.00
2023-02-24T09:21:25.400Z,3820.00
2023-02-24T09:22:27.546Z,3908.00
2023-02-24T09:23:24.508Z,3996.00
2023-02-24T09:24:24.865Z,4140.00
2023-02-24T09:25:24.486Z,4244.00
2023-02-24T09:26:24.881Z,4264.00
2023-02-24T09:27:28.527Z,4276.00
2023-02-24T09:28:25.092Z,4280.00
2023-02-24T09:29:26.348Z,4216.00
2023-02-24T09:30:25.713Z,4112.00
2023-02-24T09:31:25.278Z,3980.00
2023-02-24T09:32:24.591Z,3780.00
2023-02-24T09:33:24.731Z,3632.00
2023-02-24T09:34:24.720Z,3540.00
2023-02-24T09:35:24.378Z,3608.00
2023-02-24T09:36:24.759Z,3676.00
2023-02-24T09:37:24.649Z,3756.00
2023-02-24T09:38:26.208Z,4052.00
2023-02-24T09:39:24.621Z,4504.00
2023-02-24T09:40:33.992Z,4868.00
2023-02-24T09:41:26.087Z,4852.00
2023-02-24T09:42:24.641Z,4936.00
2023-02-24T09:43:29.132Z,5128.00
2023-02-24T09:44:27.078Z,5468.00
2023-02-24T09:45:29.138Z,5604.00
2023-02-24T09:46:24.628Z,5584.00
2023-02-24T09:47:26.959Z,5516.00
2023-02-24T09:48:24.538Z,5612.00
2023-02-24T09:49:24.548Z,5584.00
2023-02-24T09:50:51.549Z,5264.00
2023-02-24T09:51:27.984Z,5012.00
2023-02-24T09:52:24.462Z,4780.00
2023-02-24T09:53:28.829Z,4600.00
2023-02-24T09:54:25.457Z,4352.00
2023-02-24T09:55:24.492Z,4076.00
2023-02-24T09:56:24.130Z,3840.00
2023-02-24T09:57:24.140Z,3616.00
2023-02-24T09:58:34.795Z,3420.00
2023-02-24T09:59:25.121Z,3220.00
2023-02-24T10:00:25.243Z,3004.00
2023-02-24T10:01:24.534Z,2772.00
2023-02-24T10:02:24.084Z,2852.00
2023-02-24T10:03:24.033Z,2944.00
2023-02-24T10:04:24.045Z,2960.00
2023-02-24T10:05:24.017Z,3268.00
2023-02-24T10:06:24.020Z,3488.00
2023-02-24T10:07:23.993Z,3320.00
2023-02-24T10:08:23.983Z,3260.00
2023-02-24T10:09:26.884Z,3148.00
2023-02-24T10:10:24.032Z,3176.00
2023-02-24T10:11:24.263Z,3364.00
2023-02-24T10:12:24.317Z,3604.00
2023-02-24T10:13:23.954Z,3892.00
2023-02-24T10:14:27.407Z,3996.00
2023-02-24T10:15:25.204Z,3668.00
2023-02-24T10:16:24.539Z,3744.00
2023-02-24T10:17:24.290Z,4168.00
2023-02-24T10:18:25.647Z,4492.00
2023-02-24T10:19:24.193Z,4376.00
2023-02-24T10:20:23.864Z,4448.00
2023-02-24T10:21:23.855Z,4676.00
2023-02-24T10:22:24.744Z,4948.00
2023-02-24T10:23:25.244Z,5168.00
2023-02-24T10:24:23.821Z,5372.00
2023-02-24T10:25:23.819Z,5836.00
2023-02-24T10:26:23.785Z,6248.00
2023-02-24T10:27:23.814Z,6216.00
2023-02-24T10:28:23.756Z,6116.00
2023-02-24T10:29:25.015Z,5936.00
2023-02-24T10:30:23.921Z,5852.00
2023-02-24T10:31:24.125Z,6072.00
2023-02-24T10:32:24.448Z,6332.00
2023-02-24T10:33:26.553Z,6808.00
2023-02-24T10:34:24.136Z,7516.00
2023-02-24T10:35:24.089Z,7900.00
2023-02-24T10:36:24.964Z,7924.00
2023-02-24T10:37:40.072Z,8148.00
2023-02-24T10:38:33.682Z,7492.00
2023-02-24T10:39:42.243Z,7256.00
2023-02-24T10:40:42.246Z,7212.00
2023-02-24T10:41:23.695Z,7160.00
2023-02-24T10:42:23.992Z,7008.00
2023-02-24T10:43:23.643Z,6872.00
2023-02-24T10:44:23.596Z,7032.00
2023-02-24T10:45:23.549Z,7136.00
2023-02-24T10:46:38.576Z,6868.00
2023-02-24T10:48:43.344Z,7596.00
2023-02-24T10:49:37.095Z,8084.00
2023-02-24T10:50:37.489Z,8060.00
2023-02-24T10:51:36.050Z,8032.00
2023-02-24T10:52:36.061Z,8076.00
2023-02-24T10:53:36.444Z,8004.00
2023-02-24T10:54:36.054Z,8044.00
2023-02-24T10:55:36.372Z,8244.00
2023-02-24T10:56:36.029Z,8536.00
2023-02-24T10:57:36.265Z,8784.00
2023-02-24T10:58:35.981Z,9048.00
2023-02-24T10:59:35.983Z,9136.00
2023-02-24T11:00:35.991Z,9052.00
2023-02-24T11:01:36.018Z,8780.00
2023-02-24T11:02:35.992Z,8552.00
2023-02-24T11:03:35.987Z,8524.00
2023-02-24T11:04:35.903Z,8388.00
2023-02-24T11:05:35.899Z,8220.00
2023-02-24T11:06:35.880Z,8112.00
2023-02-24T11:07:36.250Z,8100.00
2023-02-24T11:08:35.877Z,7988.00
2023-02-24T11:09:35.840Z,7740.00
2023-02-24T11:10:35.859Z,7504.00
2023-02-24T11:11:35.830Z,7360.00
2023-02-24T11:12:35.804Z,7244.00
2023-02-24T11:13:36.086Z,7236.00
2023-02-24T11:14:35.802Z,7292.00
2023-02-24T11:15:35.839Z,7348.00
2023-02-24T11:16:35.840Z,7444.00
2023-02-24T11:17:36.531Z,7576.00
2023-02-24T11:18:35.779Z,7604.00
2023-02-24T11:19:35.739Z,7440.00
2023-02-24T11:20:47.797Z,7276.00
2023-02-24T11:21:36.701Z,7176.00
2023-02-24T11:22:38.626Z,6972.00
2023-02-24T11:23:37.559Z,6724.00
2023-02-24T11:24:36.009Z,6624.00
2023-02-24T11:25:35.650Z,6672.00
2023-02-24T11:26:35.646Z,6804.00
2023-02-24T11:27:36.055Z,6928.00
2023-02-24T11:28:35.921Z,7224.00
2023-02-24T11:29:35.646Z,7084.00
2023-02-24T11:30:38.495Z,6740.00
2023-02-24T11:31:35.730Z,6220.00
2023-02-24T11:32:38.465Z,5812.00
2023-02-24T11:33:36.635Z,5480.00
2023-02-24T11:34:35.871Z,5444.00
2023-02-24T11:35:37.440Z,5716.00
2023-02-24T11:36:38.422Z,5988.00
2023-02-24T11:37:35.557Z,6052.00
2023-02-24T11:38:35.517Z,6060.00
2023-02-24T11:39:36.377Z,5836.00
2023-02-24T11:40:35.475Z,5744.00
2023-02-24T11:41:35.474Z,5672.00
2023-02-24T11:42:35.451Z,5588.00
2023-02-24T11:43:37.272Z,5664.00
2023-02-24T11:44:36.477Z,5748.00
2023-02-24T11:45:35.420Z,5772.00
2023-02-24T11:46:35.462Z,5688.00
2023-02-24T11:47:35.404Z,5520.00
2023-02-24T11:48:35.712Z,5328.00
2023-02-24T11:49:35.403Z,5144.00
2023-02-24T11:50:35.382Z,5000.00
2023-02-24T11:51:35.375Z,4892.00
2023-02-24T11:52:35.383Z,4784.00
2023-02-24T11:53:35.326Z,4716.00
2023-02-24T11:54:35.371Z,4652.00
2023-02-24T11:55:35.311Z,4496.00
2023-02-24T11:56:37.153Z,4344.00
2023-02-24T11:57:35.632Z,4320.00
2023-02-24T11:58:35.566Z,4280.00
2023-02-24T11:59:38.146Z,4224.00
2023-02-24T12:00:35.277Z,4212.00
2023-02-24T12:01:35.526Z,4252.00
2023-02-24T12:02:35.292Z,4288.00
2023-02-24T12:03:35.242Z,4304.00
2023-02-24T12:04:37.084Z,4308.00
2023-02-24T12:05:35.499Z,4336.00
2023-02-24T12:06:35.188Z,4320.00
2023-02-24T12:07:35.191Z,4324.00
2023-02-24T12:08:35.569Z,4372.00
2023-02-24T12:09:44.000Z,4428.00
2023-02-24T12:10:42.146Z,4492.00
2023-02-24T12:14:29.258Z,4260.00
2023-02-24T12:15:37.360Z,4144.00
2023-02-24T12:16:29.685Z,4024.00
2023-02-24T12:17:29.569Z,3916.00
2023-02-24T12:18:29.673Z,3852.00
2023-02-24T12:19:29.230Z,3824.00
2023-02-24T12:20:31.979Z,3784.00
2023-02-24T12:21:29.797Z,3764.00
2023-02-24T12:22:29.217Z,3720.00
2023-02-24T12:23:29.536Z,3680.00
2023-02-24T12:24:29.233Z,3680.00
2023-02-24T12:25:29.151Z,3736.00
2023-02-24T12:26:29.126Z,3844.00
2023-02-24T12:27:31.893Z,3940.00
2023-02-24T12:28:29.118Z,3988.00
2023-02-24T12:29:29.110Z,4016.00
2023-02-24T12:30:29.133Z,4020.00
2023-02-24T12:31:29.150Z,3944.00
2023-02-24T12:32:29.142Z,3812.00
2023-02-24T12:33:29.051Z,3636.00
2023-02-24T12:34:29.049Z,3404.00
2023-02-24T12:35:29.361Z,3248.00
2023-02-24T12:36:30.952Z,3168.00
2023-02-24T12:37:29.088Z,3140.00
2023-02-24T12:38:29.004Z,3152.00
2023-02-24T12:39:29.019Z,3228.00
2023-02-24T12:40:28.982Z,3320.00
2023-02-24T12:41:29.296Z,3420.00
2023-02-24T12:42:29.059Z,3488.00
2023-02-24T12:43:28.929Z,3588.00
2023-02-24T12:44:28.918Z,3684.00
2023-02-24T12:45:28.968Z,3772.00
2023-02-24T12:46:30.707Z,3780.00
2023-02-24T12:47:28.891Z,3784.00
2023-02-24T12:48:28.919Z,3684.00
2023-02-24T12:49:29.451Z,3584.00
2023-02-24T12:50:29.912Z,3512.00
2023-02-24T12:51:28.838Z,3440.00
2023-02-24T12:52:28.837Z,3396.00
2023-02-24T12:53:30.730Z,3460.00
2023-02-24T12:54:31.612Z,3520.00
2023-02-24T12:55:30.703Z,3584.00
2023-02-24T12:56:31.545Z,3500.00
2023-02-24T12:57:31.583Z,3500.00
2023-02-24T12:58:28.787Z,3432.00
2023-02-24T12:59:29.100Z,3436.00
2023-02-24T13:00:28.749Z,3460.00
2023-02-24T13:01:28.762Z,3408.00
2023-02-24T13:02:28.768Z,3432.00
2023-02-24T13:03:29.453Z,3436.00
2023-02-24T13:04:28.730Z,3364.00
2023-02-24T13:05:28.658Z,3252.00
2023-02-24T13:06:31.459Z,3256.00
2023-02-24T13:07:28.644Z,3264.00
2023-02-24T13:08:28.648Z,3064.00
2023-02-24T13:09:28.936Z,2856.00